Time;durP1;ratioP1;P1;durP2;ratioP2;P2;SDS_P1;SDS_P2;PMS_P1;PMS_P2;Temp;Humidity;BMP_temperature;BMP_pressure;BME280_temperature;BME280_humidity;BME280_pressure;Samples;Min_cycle;Max_cycle;Signal;HPM_P1;HPM_P2
2021/06/21 00:51:17;;;;;;;8.10;5.80;;;17.60;99.90;;;;;;5071359;28;20509;-76
2021/06/21 00:57:41;;;;;;;9.30;5.00;;;17.50;99.90;;;;;;5075225;28;20471;-76
2021/06/21 01:04:09;;;;;;;7.23;4.03;;;17.50;99.90;;;;;;5079659;28;20471;-77
2021/06/21 01:07:32;;;;;;;5.67;3.70;;;17.50;99.90;;;;;;5058985;28;20812;-77
2021/06/21 01:11:27;;;;;;;8.63;3.80;;;17.40;99.90;;;;;;5060639;28;20446;-77
2021/06/21 01:14:52;;;;;;;4.93;3.90;;;17.40;99.90;;;;;;5071328;28;21005;-77
2021/06/21 01:40:54;;;;;;;9.07;4.87;;;17.40;99.90;;;;;;5072587;28;20449;-75
2021/06/21 01:44:03;;;;;;;5.80;4.30;;;17.40;99.90;;;;;;5089633;28;20889;-76
2021/06/21 01:58:06;;;;;;;10.30;6.60;;;17.40;99.90;;;;;;5092810;28;20450;-76
2021/06/21 02:01:26;;;;;;;6.73;5.50;;;17.40;99.90;;;;;;5091436;28;20998;-76
2021/06/21 02:12:24;;;;;;;9.02;6.25;;;17.40;99.90;;;;;;5092386;28;20529;-76
2021/06/21 02:20:00;;;;;;;8.37;5.70;;;17.40;99.90;;;;;;5092944;28;20508;-76
2021/06/21 02:26:39;;;;;;;6.33;4.57;;;17.40;99.90;;;;;;5092412;28;20297;-76
2021/06/21 02:29:17;;;;;;;12.80;5.40;;;17.40;99.90;;;;;;5094195;28;20495;-76
2021/06/21 02:32:49;;;;;;;7.03;6.30;;;17.40;99.90;;;;;;5096296;28;20461;-76
2021/06/21 02:40:08;;;;;;;7.57;6.33;;;17.30;99.90;;;;;;5075641;28;20462;-77
2021/06/21 02:42:47;;;;;;;9.77;6.13;;;17.30;99.90;;;;;;5057865;28;20539;-75
2021/06/21 02:46:27;;;;;;;8.33;5.93;;;17.30;99.90;;;;;;5074794;28;21009;-75
2021/06/21 02:57:52;;;;;;;9.87;5.97;;;17.10;99.90;;;;;;5075448;28;20443;-76
2021/06/21 03:04:26;;;;;;;8.10;5.07;;;16.90;99.90;;;;;;5075375;28;20554;-76
2021/06/21 03:10:54;;;;;;;5.53;4.40;;;16.80;99.90;;;;;;5055455;28;20437;-76
2021/06/21 03:14:37;;;;;;;7.40;5.15;;;16.80;99.90;;;;;;5054256;28;20489;-75
2021/06/21 03:21:46;;;;;;;5.70;4.63;;;16.60;99.90;;;;;;5094237;28;20974;-75
2021/06/21 03:43:30;;;;;;;6.57;5.70;;;16.20;99.90;;;;;;5094636;28;20486;-75
2021/06/21 03:47:32;;;;;;;7.10;6.33;;;16.20;99.90;;;;;;5093289;28;20566;-75
2021/06/21 03:53:59;;;;;;;7.80;7.00;;;16.10;99.90;;;;;;5074484;28;20885;-75
2021/06/21 03:57:15;;;;;;;9.90;7.80;;;16.10;99.90;;;;;;5074275;28;20474;-74
2021/06/21 04:07:40;;;;;;;9.40;8.10;;;16.00;99.90;;;;;;5073752;28;20573;-75
2021/06/21 04:11:08;;;;;;;8.37;7.47;;;16.00;99.90;;;;;;5072325;28;20449;-75
2021/06/21 04:26:08;;;;;;;9.50;8.60;;;16.00;99.90;;;;;;5052425;28;20975;-74
2021/06/21 05:39:00;;;;;;;5.73;4.97;;;15.60;99.90;;;;;;5073027;28;20460;-76
2021/06/21 05:41:28;;;;;;;4.90;4.50;;;15.50;99.90;;;;;;5055065;28;20948;-76
2021/06/21 05:43:56;;;;;;;4.77;4.27;;;15.50;99.90;;;;;;5073039;28;20404;-76
2021/06/21 05:46:27;;;;;;;5.00;4.50;;;15.40;99.90;;;;;;5073243;28;20481;-76
2021/06/21 05:48:55;;;;;;;4.40;4.00;;;15.40;99.90;;;;;;5054920;28;20904;-76
2021/06/21 05:51:23;;;;;;;7.30;4.30;;;15.40;99.90;;;;;;5073141;28;20443;-76
2021/06/21 05:53:52;;;;;;;5.90;5.23;;;15.30;99.90;;;;;;5054941;28;20497;-76
2021/06/21 05:56:22;;;;;;;5.67;4.60;;;15.30;99.90;;;;;;5072972;28;20503;-76
2021/06/21 08:11:50;;;;;;;3.80;3.17;;;15.20;99.90;;;;;;4786856;29;20467;-75
2021/06/21 08:14:18;;;;;;;3.30;3.00;;;15.20;99.90;;;;;;4836120;29;20515;-75
2021/06/21 08:16:46;;;;;;;3.40;3.10;;;15.20;99.90;;;;;;4879398;29;20516;-75
2021/06/21 08:19:15;;;;;;;3.90;3.27;;;15.30;99.90;;;;;;4880626;29;20440;-75
2021/06/21 08:21:43;;;;;;;4.33;3.93;;;15.30;99.90;;;;;;4880473;29;20413;-75
2021/06/21 08:24:12;;;;;;;3.27;2.97;;;15.30;99.90;;;;;;4880468;29;20477;-75
2021/06/21 08:26:40;;;;;;;3.43;3.03;;;15.30;99.90;;;;;;4878380;29;20498;-75
2021/06/21 08:29:09;;;;;;;3.90;2.93;;;15.30;99.90;;;;;;4880598;29;20540;-75
2021/06/21 08:31:38;;;;;;;3.40;3.10;;;15.30;99.90;;;;;;4879143;29;20983;-75
2021/06/21 08:34:06;;;;;;;3.10;2.80;;;15.30;99.90;;;;;;4879115;29;20957;-75
2021/06/21 08:36:34;;;;;;;3.07;2.77;;;15.30;99.90;;;;;;4879257;29;20520;-75
2021/06/21 08:39:03;;;;;;;3.50;2.80;;;15.40;99.90;;;;;;4880232;29;20468;-74
2021/06/21 08:41:31;;;;;;;2.93;2.30;;;15.40;99.90;;;;;;4863393;29;20347;-75
2021/06/21 08:44:01;;;;;;;3.17;2.87;;;15.40;99.90;;;;;;4880098;29;20421;-75
2021/06/21 08:46:31;;;;;;;2.70;2.23;;;15.40;99.90;;;;;;4863128;29;20565;-75
2021/06/21 08:49:03;;;;;;;4.03;3.70;;;15.40;99.90;;;;;;4878622;29;20452;-75
2021/06/21 08:51:34;;;;;;;3.03;2.72;;;15.40;99.90;;;;;;4879072;29;20989;-75
2021/06/21 08:54:02;;;;;;;2.27;2.07;;;15.50;99.90;;;;;;4863296;29;20698;-75
2021/06/21 08:56:32;;;;;;;2.37;2.17;;;15.60;99.90;;;;;;4863316;29;20784;-76
2021/06/21 08:59:04;;;;;;;3.87;2.90;;;15.60;99.90;;;;;;4863053;29;20546;-76
2021/06/21 09:01:37;;;;;;;2.93;2.63;;;15.60;99.90;;;;;;4879780;29;20416;-76
2021/06/21 09:04:09;;;;;;;3.20;2.17;;;15.60;99.90;;;;;;4863191;29;20479;-76
2021/06/21 09:06:39;;;;;;;2.57;2.37;;;15.70;99.90;;;;;;4889512;29;20510;-76
2021/06/21 09:09:07;;;;;;;2.83;2.63;;;15.70;99.90;;;;;;4881451;29;20472;-75
2021/06/21 09:11:54;;;;;;;2.20;2.00;;;15.80;99.90;;;;;;4897066;29;20464;-75
2021/06/21 09:14:33;;;;;;;2.23;2.03;;;15.80;99.90;;;;;;4896993;29;20538;-75
2021/06/21 09:17:05;;;;;;;2.40;2.20;;;15.80;99.90;;;;;;4897074;29;21015;-75
2021/06/21 09:19:51;;;;;;;2.87;2.60;;;15.80;99.90;;;;;;4896991;29;20569;-75
2021/06/21 09:22:30;;;;;;;3.03;2.70;;;15.90;99.90;;;;;;4897003;29;20513;-75
2021/06/21 09:25:08;;;;;;;2.57;2.37;;;15.90;99.90;;;;;;4898493;29;20750;-75
2021/06/21 09:27:39;;;;;;;2.60;2.40;;;15.90;99.90;;;;;;4881293;29;20561;-75
2021/06/21 09:30:09;;;;;;;2.70;2.40;;;15.90;99.90;;;;;;4896805;29;20973;-75
2021/06/21 09:32:44;;;;;;;2.80;2.60;;;15.90;99.90;;;;;;4898078;29;20447;-75
2021/06/21 09:35:39;;;;;;;10.97;3.63;;;15.90;99.90;;;;;;4898324;29;20906;-75
2021/06/21 09:38:15;;;;;;;4.03;2.90;;;15.90;99.90;;;;;;4884146;29;20637;-75
2021/06/21 09:40:48;;;;;;;4.33;3.00;;;15.90;99.90;;;;;;4901937;29;20459;-75
2021/06/21 09:43:23;;;;;;;2.80;2.30;;;15.90;99.90;;;;;;4885028;29;20454;-75
2021/06/21 09:46:12;;;;;;;3.20;2.90;;;16.00;99.90;;;;;;4901972;29;20451;-75
2021/06/21 09:48:44;;;;;;;2.73;2.53;;;16.00;99.90;;;;;;4884844;29;20486;-75
2021/06/21 09:51:25;;;;;;;2.30;2.10;;;16.00;99.90;;;;;;4885027;29;20422;-75
2021/06/21 09:54:03;;;;;;;4.63;2.57;;;15.90;99.90;;;;;;4902272;29;20760;-74
2021/06/21 09:56:43;;;;;;;3.33;3.03;;;15.90;99.90;;;;;;4884454;29;20547;-74
2021/06/21 09:59:19;;;;;;;3.57;3.27;;;15.90;99.90;;;;;;4884863;29;20888;-74
2021/06/21 10:02:04;;;;;;;3.23;2.93;;;16.00;99.90;;;;;;4884783;29;20503;-74
2021/06/21 10:04:35;;;;;;;3.90;3.50;;;15.90;99.90;;;;;;4901497;29;20915;-74
2021/06/21 10:07:03;;;;;;;3.10;2.80;;;15.90;99.90;;;;;;4901395;29;20452;-74
2021/06/21 10:09:32;;;;;;;2.77;2.57;;;16.00;99.90;;;;;;4901466;29;20432;-74
2021/06/21 10:12:00;;;;;;;4.00;3.60;;;15.90;99.90;;;;;;4901459;29;20428;-74
2021/06/21 10:14:28;;;;;;;3.17;2.87;;;16.00;99.90;;;;;;4900185;29;20421;-74
2021/06/21 10:16:57;;;;;;;4.17;3.77;;;16.00;99.90;;;;;;4900129;29;20811;-74
2021/06/21 10:19:26;;;;;;;3.60;3.30;;;16.00;99.90;;;;;;4900040;29;20479;-74
2021/06/21 10:21:58;;;;;;;4.23;3.80;;;16.00;99.90;;;;;;4901799;29;20416;-74
2021/06/21 10:24:31;;;;;;;3.57;3.27;;;16.00;99.90;;;;;;4900142;29;20460;-75
2021/06/21 10:27:00;;;;;;;3.57;3.27;;;16.00;99.90;;;;;;4899863;29;20441;-74
2021/06/21 10:29:29;;;;;;;3.20;2.90;;;16.00;99.90;;;;;;4900918;29;20565;-75
2021/06/21 10:31:59;;;;;;;3.43;2.97;;;16.00;99.90;;;;;;4900969;29;20862;-75
2021/06/21 10:34:28;;;;;;;3.40;3.10;;;16.10;99.90;;;;;;4884207;29;20559;-75
2021/06/21 10:36:58;;;;;;;3.40;3.20;;;16.10;99.90;;;;;;4899957;29;20432;-75
2021/06/21 10:39:28;;;;;;;3.90;3.60;;;16.10;99.90;;;;;;4899492;29;20539;-74
2021/06/21 10:42:17;;;;;;;4.30;4.00;;;16.10;99.90;;;;;;4899927;29;20995;-75
2021/06/21 10:44:56;;;;;;;3.97;3.67;;;16.10;99.90;;;;;;4901129;29;20464;-75
2021/06/21 10:47:39;;;;;;;4.20;3.87;;;16.10;99.90;;;;;;4899522;29;22432;-74
2021/06/21 10:50:11;;;;;;;4.90;4.50;;;16.20;99.90;;;;;;4898887;29;20464;-75
2021/06/21 10:52:43;;;;;;;4.53;4.13;;;16.20;99.90;;;;;;4900948;29;20512;-75
2021/06/21 10:55:46;;;;;;;4.67;4.30;;;16.20;99.90;;;;;;4899439;29;21020;-75
2021/06/21 10:58:45;;;;;;;3.90;3.60;;;16.20;99.90;;;;;;4893236;29;20430;-75
2021/06/21 11:01:22;;;;;;;4.23;3.90;;;16.20;99.90;;;;;;4901307;29;20513;-75
2021/06/21 11:03:51;;;;;;;4.60;4.20;;;16.20;99.90;;;;;;4900467;29;20431;-74
2021/06/21 11:06:48;;;;;;;4.82;4.43;;;16.20;99.90;;;;;;4898299;29;20456;-75
2021/06/21 11:09:42;;;;;;;4.90;4.50;;;16.30;99.90;;;;;;4878126;29;20279;-75
2021/06/21 11:12:35;;;;;;;4.90;4.40;;;16.20;99.90;;;;;;4899112;29;20926;-75
2021/06/21 11:15:16;;;;;;;5.23;4.73;;;16.20;99.90;;;;;;4894145;29;20525;-74
2021/06/21 11:17:58;;;;;;;5.30;4.80;;;16.20;99.90;;;;;;4884482;29;20522;-74
2021/06/21 11:20:36;;;;;;;5.10;4.53;;;16.30;99.90;;;;;;4898891;29;20473;-75
2021/06/21 11:23:06;;;;;;;5.67;5.17;;;16.30;99.90;;;;;;4883295;29;20425;-74
2021/06/21 11:25:38;;;;;;;4.97;4.57;;;16.30;99.90;;;;;;4883379;29;20427;-74
2021/06/21 11:28:06;;;;;;;5.63;5.13;;;16.30;99.90;;;;;;4883189;29;20986;-74
2021/06/21 11:30:41;;;;;;;7.40;6.80;;;16.30;99.90;;;;;;4899962;29;20462;-74
2021/06/21 11:33:12;;;;;;;5.70;5.20;;;16.30;99.90;;;;;;4900026;29;20433;-74
2021/06/21 11:36:01;;;;;;;6.10;5.60;;;16.30;99.90;;;;;;4898673;29;20548;-74
2021/06/21 11:38:36;;;;;;;6.00;5.50;;;16.40;99.90;;;;;;4882879;29;20546;-74
2021/06/21 11:41:50;;;;;;;5.60;5.10;;;16.40;99.90;;;;;;4883032;29;20504;-74
2021/06/21 11:44:45;;;;;;;6.00;5.50;;;16.40;99.90;;;;;;4845025;29;20452;-74
2021/06/21 11:47:21;;;;;;;5.30;4.90;;;16.40;99.90;;;;;;4860763;29;20519;-74
2021/06/21 11:49:52;;;;;;;5.40;4.20;;;16.40;99.90;;;;;;4890303;29;20590;-75
2021/06/21 11:52:25;;;;;;;4.63;4.23;;;16.40;99.90;;;;;;4898495;29;20544;-75
2021/06/21 11:55:15;;;;;;;4.60;4.20;;;16.50;99.90;;;;;;4882762;29;20466;-74
2021/06/21 11:57:53;;;;;;;4.17;3.87;;;16.50;99.90;;;;;;4882727;29;20939;-75
2021/06/21 12:00:33;;;;;;;4.45;4.05;;;16.50;99.90;;;;;;4898027;29;20488;-75
2021/06/21 12:03:02;;;;;;;4.30;3.37;;;16.50;99.90;;;;;;4882682;29;20202;-74
2021/06/21 12:05:30;;;;;;;3.70;3.40;;;16.50;99.90;;;;;;4898244;29;20521;-75
2021/06/21 12:07:58;;;;;;;4.47;4.17;;;16.50;99.90;;;;;;4898035;29;20555;-75
2021/06/21 12:10:27;;;;;;;4.13;3.83;;;16.60;99.90;;;;;;4899178;29;20954;-74
2021/06/21 12:12:57;;;;;;;3.77;3.47;;;16.60;99.90;;;;;;4882399;29;20556;-75
2021/06/21 12:15:30;;;;;;;3.93;3.63;;;16.60;99.90;;;;;;4899319;29;20430;-75
2021/06/21 12:17:59;;;;;;;4.27;3.97;;;16.60;99.90;;;;;;4899503;29;20425;-74
2021/06/21 12:20:28;;;;;;;4.60;4.20;;;16.60;99.90;;;;;;4898996;29;20463;-75
2021/06/21 12:23:01;;;;;;;3.97;3.67;;;16.60;99.90;;;;;;4897859;29;20450;-74
2021/06/21 12:25:31;;;;;;;4.60;4.20;;;16.60;99.90;;;;;;4899221;29;20885;-74
2021/06/21 12:28:20;;;;;;;3.80;3.50;;;16.70;99.90;;;;;;4882129;29;20446;-74
2021/06/21 12:30:50;;;;;;;3.73;3.43;;;16.70;99.90;;;;;;4898980;29;20469;-74
2021/06/21 12:33:37;;;;;;;3.87;3.57;;;16.70;99.90;;;;;;4897618;29;20455;-74
2021/06/21 12:36:11;;;;;;;4.40;4.00;;;16.70;99.90;;;;;;4881939;29;20903;-74
2021/06/21 12:38:42;;;;;;;4.40;4.00;;;16.70;99.90;;;;;;4899297;29;20418;-74
2021/06/21 12:41:19;;;;;;;3.20;3.00;;;16.70;99.90;;;;;;4898764;29;20475;-74
2021/06/21 12:44:11;;;;;;;4.00;3.70;;;16.70;99.90;;;;;;4897558;29;20479;-74
2021/06/21 12:50:22;;;;;;;4.07;3.67;;;16.70;99.90;;;;;;4898337;29;20475;-74
2021/06/21 12:52:53;;;;;;;4.20;3.80;;;16.80;99.90;;;;;;4881686;29;20943;-74
2021/06/21 12:55:25;;;;;;;3.47;3.17;;;16.80;99.90;;;;;;4898494;29;20866;-74
2021/06/21 12:57:55;;;;;;;3.90;3.43;;;16.80;99.90;;;;;;4898727;29;20465;-73
2021/06/21 13:00:43;;;;;;;3.20;3.00;;;16.80;99.90;;;;;;4898467;29;21003;-74
2021/06/21 13:03:13;;;;;;;2.87;2.57;;;16.80;99.90;;;;;;4899171;29;20510;-77
2021/06/21 13:05:43;;;;;;;3.23;2.67;;;16.70;99.90;;;;;;4881726;29;20906;-74
2021/06/21 13:08:13;;;;;;;1.83;1.73;;;16.70;99.90;;;;;;4897181;29;20448;-73
2021/06/21 13:13:54;;;;;;;2.20;2.00;;;16.60;99.90;;;;;;4881470;29;20563;-74
2021/06/21 13:20:26;;;;;;;2.40;2.20;;;16.60;99.90;;;;;;4897346;29;20544;-75
2021/06/21 13:23:02;;;;;;;2.87;2.67;;;16.60;99.90;;;;;;4898445;29;20187;-74
2021/06/21 13:25:33;;;;;;;2.30;2.10;;;16.60;99.90;;;;;;4898429;29;20451;-74
2021/06/21 13:28:03;;;;;;;2.70;2.27;;;16.60;99.90;;;;;;4898401;29;20756;-74
2021/06/21 13:30:35;;;;;;;2.40;2.20;;;16.60;99.90;;;;;;4896756;29;20469;-74
2021/06/21 13:33:06;;;;;;;2.53;2.33;;;16.60;99.90;;;;;;4897155;29;20475;-74
2021/06/21 13:35:37;;;;;;;3.70;3.40;;;16.60;99.90;;;;;;4881254;29;20868;-74
2021/06/21 13:38:09;;;;;;;3.30;3.00;;;16.60;99.90;;;;;;4898368;29;20455;-74
2021/06/21 13:40:37;;;;;;;3.50;3.20;;;16.60;99.90;;;;;;4898260;29;20515;-75
2021/06/21 13:43:07;;;;;;;2.43;2.23;;;16.50;99.90;;;;;;4897915;29;20445;-74
2021/06/21 13:45:38;;;;;;;2.83;2.63;;;16.50;99.90;;;;;;4898983;29;20843;-75
2021/06/21 13:48:10;;;;;;;2.90;2.70;;;16.50;99.90;;;;;;4881261;29;20511;-74
2021/06/21 13:50:42;;;;;;;3.17;2.97;;;16.40;99.90;;;;;;4897905;29;20559;-74
2021/06/21 13:53:24;;;;;;;3.10;2.90;;;16.40;99.90;;;;;;4897869;29;20401;-74
2021/06/21 13:55:53;;;;;;;4.47;4.07;;;16.30;99.90;;;;;;4898139;29;20430;-74
2021/06/21 13:58:31;;;;;;;4.80;4.40;;;16.30;99.90;;;;;;4896469;29;20425;-74
2021/06/21 14:01:10;;;;;;;5.37;4.20;;;16.30;99.90;;;;;;4898216;29;20483;-74
2021/06/21 14:03:42;;;;;;;3.57;3.30;;;16.30;99.90;;;;;;4898015;29;20535;-74
2021/06/21 14:06:12;;;;;;;4.40;4.10;;;16.30;99.90;;;;;;4896654;29;20536;-74
2021/06/21 14:08:41;;;;;;;4.40;4.10;;;16.30;99.90;;;;;;4896479;29;20415;-74
2021/06/21 14:11:11;;;;;;;4.43;4.00;;;16.30;99.90;;;;;;4897751;29;20966;-75
2021/06/21 14:13:40;;;;;;;5.13;4.63;;;16.30;99.90;;;;;;4897953;29;20467;-74
2021/06/21 14:16:09;;;;;;;5.20;4.70;;;16.30;99.90;;;;;;4896774;29;20439;-74
2021/06/21 16:36:28;;;;;;;4.60;4.20;;;15.70;99.90;;;;;;4915632;29;20476;-78
2021/06/21 16:38:58;;;;;;;3.80;3.50;;;15.70;99.90;;;;;;4917556;29;20485;-79
2021/06/21 16:41:28;;;;;;;3.83;3.53;;;15.60;99.90;;;;;;4901101;29;20487;-77
2021/06/21 16:43:57;;;;;;;4.47;4.07;;;15.60;99.90;;;;;;4918848;29;20450;-78
2021/06/21 16:46:25;;;;;;;5.00;4.60;;;15.60;99.90;;;;;;4902880;29;20447;-77
2021/06/21 16:48:54;;;;;;;3.63;3.03;;;15.60;99.90;;;;;;4901235;29;20506;-77
2021/06/21 16:51:22;;;;;;;4.10;3.50;;;15.60;99.90;;;;;;4900822;29;21014;-77
2021/06/21 16:53:51;;;;;;;3.83;3.50;;;15.50;99.90;;;;;;4899569;29;20457;-77
2021/06/21 16:56:22;;;;;;;4.83;4.07;;;15.50;99.90;;;;;;4899976;29;20425;-77
2021/06/21 16:58:53;;;;;;;4.83;3.70;;;15.50;99.90;;;;;;4902549;29;20485;-77
2021/06/21 17:01:21;;;;;;;3.40;3.20;;;15.40;99.90;;;;;;4893294;29;20489;-77
2021/06/21 17:03:51;;;;;;;5.47;4.80;;;15.40;99.90;;;;;;4900766;29;20459;-77
2021/06/21 17:06:22;;;;;;;6.83;4.07;;;15.30;99.90;;;;;;4901514;29;20457;-78
2021/06/21 17:08:52;;;;;;;4.43;4.03;;;15.30;99.90;;;;;;4916897;29;20452;-76
2021/06/21 17:11:23;;;;;;;5.63;4.90;;;15.30;99.90;;;;;;4899884;29;20877;-76
2021/06/21 17:13:53;;;;;;;5.10;4.60;;;15.20;99.90;;;;;;4916160;29;20428;-76
2021/06/21 17:16:21;;;;;;;4.10;3.80;;;15.20;99.90;;;;;;4917446;29;20423;-76
2021/06/21 17:18:49;;;;;;;5.57;3.90;;;15.20;99.90;;;;;;4900917;29;20792;-76
2021/06/21 17:21:18;;;;;;;4.80;4.27;;;15.20;99.90;;;;;;4916900;29;20497;-76
2021/06/21 17:23:49;;;;;;;5.40;3.90;;;15.20;99.90;;;;;;4916965;29;20473;-76
2021/06/21 17:26:19;;;;;;;5.00;3.37;;;15.10;99.90;;;;;;4900088;29;20493;-76
2021/06/21 17:28:50;;;;;;;3.93;3.30;;;15.10;99.90;;;;;;4917459;29;20456;-76
2021/06/21 17:31:22;;;;;;;3.30;3.00;;;15.10;99.90;;;;;;4917417;29;20439;-76
2021/06/21 17:33:51;;;;;;;3.80;2.97;;;15.10;99.90;;;;;;4899871;29;20432;-76
2021/06/21 17:36:20;;;;;;;4.00;3.40;;;15.10;99.90;;;;;;4899058;29;20442;-76
2021/06/21 17:42:19;;;;;;;3.47;3.13;;;15.00;99.90;;;;;;4899427;29;20440;-76
2021/06/21 17:44:50;;;;;;;3.90;3.50;;;14.90;99.90;;;;;;4917247;29;20463;-76
2021/06/21 17:47:19;;;;;;;2.80;2.50;;;14.80;99.90;;;;;;4901530;29;20443;-76
2021/06/21 17:49:47;;;;;;;4.10;3.70;;;14.80;99.90;;;;;;4916407;29;20458;-76
2021/06/21 17:52:16;;;;;;;3.97;3.10;;;14.80;99.90;;;;;;4899590;29;20487;-76
2021/06/21 17:54:44;;;;;;;4.33;3.20;;;14.70;99.90;;;;;;4899746;29;20437;-76
2021/06/21 17:57:14;;;;;;;5.60;3.57;;;14.70;99.90;;;;;;4916732;29;20416;-76
2021/06/21 17:59:45;;;;;;;4.33;3.43;;;14.60;99.90;;;;;;4903470;29;20480;-76
2021/06/21 18:02:15;;;;;;;4.13;3.73;;;14.60;99.90;;;;;;4911761;29;20556;-75
2021/06/21 18:04:44;;;;;;;4.80;3.93;;;14.60;99.90;;;;;;4903654;29;20437;-75
2021/06/21 18:07:12;;;;;;;4.60;3.60;;;14.50;99.90;;;;;;4920382;29;21009;-76
2021/06/21 18:09:40;;;;;;;4.50;3.83;;;14.60;99.90;;;;;;4884845;29;20868;-76
2021/06/21 18:12:09;;;;;;;5.67;3.70;;;14.50;99.90;;;;;;4884520;29;20456;-76
2021/06/21 18:14:37;;;;;;;10.30;4.13;;;14.50;99.90;;;;;;4900103;29;20428;-76
2021/06/21 18:17:07;;;;;;;4.00;3.70;;;14.50;99.90;;;;;;4916089;29;20444;-76
2021/06/21 18:19:35;;;;;;;8.80;4.10;;;14.40;99.90;;;;;;4920010;29;20777;-76
2021/06/21 18:22:03;;;;;;;6.03;3.80;;;14.40;99.90;;;;;;4920443;29;20420;-76
2021/06/21 18:24:32;;;;;;;4.17;3.77;;;14.40;99.90;;;;;;4919682;29;20567;-76
2021/06/21 18:27:00;;;;;;;4.97;4.47;;;14.40;99.90;;;;;;4921844;29;20504;-76
2021/06/21 18:29:28;;;;;;;5.27;4.03;;;14.40;99.90;;;;;;4903384;29;20868;-76
2021/06/21 18:31:56;;;;;;;6.10;4.17;;;14.40;99.90;;;;;;4921615;29;20478;-76
2021/06/21 18:34:37;;;;;;;4.67;4.20;;;14.40;99.90;;;;;;4920038;29;20474;-77
2021/06/21 18:37:17;;;;;;;4.80;3.63;;;14.40;99.90;;;;;;4899713;29;20496;-77
2021/06/21 18:39:45;;;;;;;5.23;4.73;;;14.40;99.90;;;;;;4919394;29;20486;-77
2021/06/21 18:42:16;;;;;;;4.60;4.20;;;14.40;99.90;;;;;;4902971;29;20445;-77
2021/06/21 18:44:46;;;;;;;6.90;6.00;;;14.30;99.90;;;;;;4920225;29;20458;-77
2021/06/21 18:47:14;;;;;;;5.30;4.80;;;14.50;99.90;;;;;;4903185;29;20823;-77
2021/06/21 18:49:44;;;;;;;7.70;5.00;;;14.50;99.90;;;;;;4919489;29;20983;-77
2021/06/21 18:52:12;;;;;;;7.50;4.80;;;14.40;99.90;;;;;;4919693;29;20455;-77
2021/06/21 18:54:40;;;;;;;5.40;4.60;;;14.40;99.90;;;;;;4903222;29;20459;-77
2021/06/21 18:57:09;;;;;;;6.33;4.40;;;14.50;99.90;;;;;;4902598;29;20263;-77
2021/06/21 18:59:37;;;;;;;7.53;4.87;;;14.50;99.90;;;;;;4919452;29;20465;-77
2021/06/21 19:02:05;;;;;;;4.77;4.07;;;14.50;99.90;;;;;;4920861;29;20842;-76
2021/06/21 19:04:34;;;;;;;5.70;4.20;;;14.40;99.90;;;;;;4902358;29;20500;-76
2021/06/21 19:07:04;;;;;;;5.43;4.43;;;14.40;99.90;;;;;;4904041;29;20442;-77
2021/06/21 19:09:32;;;;;;;7.13;4.40;;;14.40;99.90;;;;;;4901686;29;20488;-77
2021/06/21 19:12:00;;;;;;;9.80;4.17;;;14.40;99.90;;;;;;4920632;29;20473;-76
2021/06/21 19:14:29;;;;;;;7.67;4.80;;;14.40;99.90;;;;;;4902194;29;20456;-76
2021/06/21 19:16:57;;;;;;;10.47;5.03;;;14.40;99.90;;;;;;4902108;29;20451;-76
2021/06/21 19:19:27;;;;;;;10.33;5.80;;;14.40;99.90;;;;;;4919088;29;20469;-76
2021/06/21 19:21:57;;;;;;;9.27;5.90;;;14.30;99.90;;;;;;4919319;29;20771;-76
2021/06/21 19:24:27;;;;;;;9.67;6.30;;;14.30;99.90;;;;;;4917804;29;20440;-76
2021/06/21 19:26:55;;;;;;;9.40;6.73;;;14.30;99.90;;;;;;4901518;29;20442;-76
2021/06/21 19:29:23;;;;;;;10.40;6.20;;;14.30;99.90;;;;;;4901931;29;20472;-76
2021/06/21 19:31:54;;;;;;;11.30;7.00;;;14.30;99.90;;;;;;4919098;29;20455;-76
2021/06/21 19:34:22;;;;;;;8.73;6.53;;;14.30;99.90;;;;;;4901646;29;20443;-76
2021/06/21 19:36:50;;;;;;;9.07;6.50;;;14.30;99.90;;;;;;4918398;29;20998;-76
2021/06/21 19:39:18;;;;;;;9.27;7.00;;;14.20;99.90;;;;;;4918660;29;20987;-77
2021/06/21 19:41:48;;;;;;;10.03;6.17;;;14.20;99.90;;;;;;4918604;29;20506;-76
2021/06/21 19:44:16;;;;;;;8.87;6.73;;;14.20;99.90;;;;;;4918344;29;20459;-76
2021/06/21 19:46:44;;;;;;;12.53;7.10;;;14.20;99.90;;;;;;4901584;29;20488;-76
2021/06/21 19:49:13;;;;;;;11.80;6.57;;;14.20;99.90;;;;;;4918800;29;20467;-76
2021/06/21 19:51:41;;;;;;;10.20;6.43;;;14.20;99.90;;;;;;4920050;29;20471;-76
2021/06/21 19:54:09;;;;;;;9.13;7.40;;;14.20;99.90;;;;;;4901407;29;20807;-76
2021/06/21 19:56:37;;;;;;;11.30;7.53;;;14.20;99.90;;;;;;4918375;29;20430;-76
2021/06/21 19:59:08;;;;;;;13.37;7.73;;;14.20;99.90;;;;;;4920209;29;20476;-76
2021/06/21 20:01:36;;;;;;;10.98;8.50;;;14.20;99.90;;;;;;4901258;29;20454;-76
2021/06/21 20:04:04;;;;;;;10.53;7.07;;;14.20;99.90;;;;;;4918457;29;20197;-76
2021/06/21 20:06:33;;;;;;;14.50;7.30;;;14.20;99.90;;;;;;4918215;29;20555;-76
2021/06/21 20:09:01;;;;;;;11.93;8.23;;;14.20;99.90;;;;;;4902678;29;20841;-76
2021/06/21 20:11:29;;;;;;;11.57;7.07;;;14.20;99.90;;;;;;4917736;29;20874;-76
2021/06/21 20:13:58;;;;;;;9.87;6.73;;;14.10;99.90;;;;;;4900738;29;20510;-76
2021/06/21 20:16:28;;;;;;;7.90;5.80;;;14.20;99.90;;;;;;4918171;29;20431;-76
2021/06/21 20:18:56;;;;;;;10.30;6.50;;;14.10;99.90;;;;;;4917841;29;20956;-76
2021/06/21 20:21:42;;;;;;;12.13;7.47;;;14.10;99.90;;;;;;4917121;29;20473;-76
2021/06/21 20:24:45;;;;;;;10.00;7.00;;;14.10;99.90;;;;;;4917980;29;20825;-75
2021/06/21 20:27:56;;;;;;;12.17;7.23;;;14.10;99.90;;;;;;4900928;29;20452;-76
2021/06/21 20:31:11;;;;;;;10.73;7.37;;;14.10;99.90;;;;;;4918379;29;20512;-76
2021/06/21 20:34:18;;;;;;;8.93;6.30;;;14.00;99.90;;;;;;4900984;29;20463;-76
2021/06/21 20:51:45;;;;;;;7.63;5.03;;;14.10;99.90;;;;;;4898370;29;20473;-76
2021/06/21 20:54:49;;;;;;;9.07;5.50;;;14.10;99.90;;;;;;4897126;29;20457;-76
2021/06/21 21:04:55;;;;;;;7.07;6.10;;;14.10;99.90;;;;;;4916363;29;20456;-76
2021/06/21 21:14:37;;;;;;;11.90;5.50;;;14.10;99.90;;;;;;4916595;29;20461;-76
2021/06/21 21:17:05;;;;;;;10.87;5.10;;;14.10;99.90;;;;;;4900316;29;20468;-76
2021/06/21 21:19:34;;;;;;;8.67;5.47;;;14.10;99.90;;;;;;4916264;29;20480;-76
2021/06/21 22:55:52;;;;;;;9.70;5.70;;;13.90;99.90;;;;;;4935742;29;20486;-75
2021/06/21 22:58:20;;;;;;;8.67;5.20;;;13.90;99.90;;;;;;4937211;29;20448;-75
2021/06/21 23:00:48;;;;;;;10.93;5.80;;;14.00;99.90;;;;;;4918243;29;20801;-75
2021/06/21 23:03:16;;;;;;;11.90;5.93;;;13.90;99.90;;;;;;4918884;29;20486;-75
2021/06/21 23:05:44;;;;;;;7.90;4.70;;;14.00;99.90;;;;;;4919443;29;20876;-75
2021/06/21 23:08:12;;;;;;;9.27;6.90;;;14.00;99.90;;;;;;4919552;29;20482;-75
2021/06/21 23:10:41;;;;;;;8.80;5.60;;;14.00;99.90;;;;;;4902182;29;20466;-75
2021/06/21 23:13:10;;;;;;;9.10;5.67;;;14.00;99.90;;;;;;4914716;29;20482;-74
2021/06/21 23:15:38;;;;;;;9.20;5.60;;;14.00;99.90;;;;;;4899218;29;20432;-75
2021/06/21 23:18:07;;;;;;;13.10;5.70;;;13.90;99.90;;;;;;4870686;29;20481;-74
2021/06/21 23:20:35;;;;;;;9.30;5.97;;;14.00;99.90;;;;;;4881465;29;20437;-75
2021/06/21 23:23:03;;;;;;;11.20;6.27;;;13.90;99.90;;;;;;4880253;29;20482;-75
2021/06/21 23:25:32;;;;;;;13.40;6.53;;;14.00;99.90;;;;;;4864619;29;20425;-75
2021/06/21 23:28:00;;;;;;;11.40;6.57;;;14.00;99.90;;;;;;4873893;29;20531;-74
2021/06/21 23:30:29;;;;;;;9.30;6.30;;;13.90;99.90;;;;;;4914239;29;20468;-75
2021/06/21 23:33:00;;;;;;;11.27;6.22;;;14.00;99.90;;;;;;4898604;29;20460;-75
2021/06/21 23:35:28;;;;;;;9.00;5.87;;;14.00;99.90;;;;;;4900210;29;20296;-75
2021/06/21 23:38:01;;;;;;;7.30;5.67;;;14.00;99.90;;;;;;4900191;29;20449;-75
2021/06/21 23:40:33;;;;;;;9.03;5.90;;;14.00;99.90;;;;;;4898702;29;20480;-75
2021/06/21 23:43:01;;;;;;;14.13;6.27;;;14.00;99.90;;;;;;4899944;29;20620;-75
2021/06/21 23:45:31;;;;;;;11.50;6.27;;;14.00;99.90;;;;;;4903752;29;20434;-74
2021/06/21 23:48:00;;;;;;;7.20;6.33;;;14.00;99.90;;;;;;4891089;29;20485;-75
2021/06/21 23:50:28;;;;;;;8.63;6.37;;;14.00;99.90;;;;;;4898411;29;21054;-75
2021/06/21 23:52:56;;;;;;;10.00;6.57;;;14.00;99.90;;;;;;4898338;29;20484;-75
2021/06/21 23:55:25;;;;;;;8.63;6.23;;;14.00;99.90;;;;;;4882613;29;20452;-75
2021/06/21 23:57:54;;;;;;;9.80;7.30;;;14.00;99.90;;;;;;4898164;29;20461;-75
